createdAt,value
2023-04-02T00:00:09.849Z,8.00
2023-04-02T00:02:39.938Z,8.98
2023-04-02T00:05:07.282Z,15.90
2023-04-02T00:07:34.613Z,12.98
2023-04-02T00:10:02.518Z,11.38
2023-04-02T00:12:29.774Z,9.60
2023-04-02T00:14:58.772Z,17.63
2023-04-02T00:17:26.076Z,2.45
2023-04-02T00:19:53.360Z,22.13
2023-04-02T00:22:20.698Z,8.93
2023-04-02T00:24:48.277Z,5.03
2023-04-02T00:27:15.545Z,13.32
2023-04-02T00:29:43.260Z,18.20
2023-04-02T00:32:10.538Z,9.43
2023-04-02T00:34:37.908Z,7.60
2023-04-02T00:37:05.170Z,9.82
2023-04-02T00:39:33.133Z,24.70
2023-04-02T00:42:06.450Z,13.15
2023-04-02T00:44:34.010Z,6.75
2023-04-02T00:47:01.196Z,19.83
2023-04-02T00:49:28.517Z,7.80
2023-04-02T00:51:55.823Z,1.67
2023-04-02T00:54:23.211Z,12.65
2023-04-02T00:56:50.462Z,4.95
2023-04-02T00:59:18.245Z,12.05
2023-04-02T01:01:46.192Z,3.20
2023-04-02T01:04:13.572Z,7.85
2023-04-02T01:06:40.852Z,11.07
2023-04-02T01:09:08.195Z,8.13
2023-04-02T01:11:35.728Z,10.80
2023-04-02T01:14:03.039Z,7.90
2023-04-02T01:16:30.466Z,4.95
2023-04-02T01:18:58.355Z,21.25
2023-04-02T01:21:26.122Z,8.35
2023-04-02T01:23:53.422Z,5.10
2023-04-02T01:26:20.755Z,6.05
2023-04-02T01:28:48.088Z,10.02
2023-04-02T01:31:15.356Z,8.20
2023-04-02T01:33:42.756Z,3.28
2023-04-02T01:36:10.052Z,3.15
2023-04-02T01:38:37.296Z,9.50
2023-04-02T01:41:04.607Z,12.85
2023-04-02T01:43:31.870Z,7.57
2023-04-02T01:45:59.105Z,17.90
2023-04-02T01:48:27.611Z,21.42
2023-04-02T01:50:55.168Z,10.10
2023-04-02T01:53:22.537Z,6.70
2023-04-02T01:55:49.849Z,2.58
2023-04-02T01:58:17.132Z,20.75
2023-04-02T02:00:44.811Z,18.42
2023-04-02T02:03:12.339Z,12.95
2023-04-02T02:05:40.167Z,9.30
2023-04-02T02:08:08.066Z,5.90
2023-04-02T02:10:35.458Z,15.32
2023-04-02T02:13:02.736Z,3.90
2023-04-02T02:15:30.051Z,6.72
2023-04-02T02:17:57.376Z,13.05
2023-04-02T02:20:25.097Z,5.10
2023-04-02T02:22:52.427Z,12.68
2023-04-02T02:25:19.712Z,5.78
2023-04-02T02:27:47.178Z,4.35
2023-04-02T02:30:15.083Z,11.07
2023-04-02T02:32:42.859Z,19.42
2023-04-02T02:35:11.264Z,17.00
2023-04-02T02:37:38.884Z,29.60
2023-04-02T02:40:06.330Z,5.32
2023-04-02T02:42:33.716Z,7.53
2023-04-02T02:45:01.430Z,18.83
2023-04-02T02:47:28.775Z,20.25
2023-04-02T02:49:59.079Z,8.98
2023-04-02T02:52:27.556Z,9.23
2023-04-02T02:55:01.154Z,9.32
2023-04-02T02:57:36.736Z,4.75
2023-04-02T03:00:06.197Z,7.00
2023-04-02T03:02:33.575Z,6.07
2023-04-02T03:05:02.959Z,19.17
2023-04-02T03:07:31.164Z,21.08
2023-04-02T03:09:58.428Z,10.63
2023-04-02T03:12:26.109Z,10.63
2023-04-02T03:14:54.141Z,10.57
2023-04-02T03:17:21.569Z,6.05
2023-04-02T03:19:48.868Z,15.85
2023-04-02T03:22:16.462Z,13.10
2023-04-02T03:24:45.968Z,13.35
2023-04-02T03:27:13.815Z,13.13
2023-04-02T03:29:41.222Z,17.95
2023-04-02T03:32:10.115Z,8.88
2023-04-02T03:34:37.420Z,15.00
2023-04-02T03:37:05.529Z,11.23
2023-04-02T03:39:33.487Z,8.32
2023-04-02T03:42:00.927Z,17.38
2023-04-02T03:44:28.250Z,19.00
2023-04-02T03:46:57.662Z,15.38
2023-04-02T03:49:27.856Z,14.18
2023-04-02T03:51:55.474Z,7.47
2023-04-02T03:54:22.734Z,8.27
2023-04-02T03:56:50.554Z,7.85
2023-04-02T03:59:23.776Z,13.13
2023-04-02T04:01:51.949Z,17.15
2023-04-02T04:04:19.270Z,20.48
2023-04-02T04:06:46.541Z,9.32
2023-04-02T04:09:13.759Z,12.00
2023-04-02T04:11:41.075Z,11.20
2023-04-02T04:14:11.239Z,16.42
2023-04-02T04:16:39.510Z,23.20
2023-04-02T04:19:08.843Z,14.60
2023-04-02T04:21:39.138Z,9.63
2023-04-02T04:24:12.997Z,15.43
2023-04-02T04:26:40.361Z,17.35
2023-04-02T04:29:09.705Z,15.88
2023-04-02T04:31:39.624Z,14.07
2023-04-02T04:34:07.545Z,13.30
2023-04-02T04:36:36.335Z,8.05
2023-04-02T04:39:08.946Z,13.30
2023-04-02T04:41:37.839Z,13.05
2023-04-02T04:44:06.272Z,12.75
2023-04-02T04:46:34.308Z,19.65
2023-04-02T04:49:01.583Z,16.38
2023-04-02T04:51:31.590Z,14.65
2023-04-02T04:53:59.074Z,16.00
2023-04-02T04:56:29.466Z,12.75
2023-04-02T04:59:05.904Z,7.35
2023-04-02T05:01:33.207Z,11.02
2023-04-02T05:04:01.303Z,13.23
2023-04-02T05:06:31.301Z,16.45
2023-04-02T05:08:58.859Z,12.82
2023-04-02T05:11:26.483Z,14.60
2023-04-02T05:13:53.927Z,7.80
2023-04-02T05:16:21.468Z,21.27
2023-04-02T05:18:49.275Z,13.00
2023-04-02T05:21:17.129Z,13.52
2023-04-02T05:23:44.543Z,10.85
2023-04-02T05:26:11.737Z,16.50
2023-04-02T05:28:39.118Z,10.25
2023-04-02T05:31:06.515Z,12.48
2023-04-02T05:33:34.054Z,19.05
2023-04-02T05:36:05.126Z,11.00
2023-04-02T05:38:38.453Z,13.48
2023-04-02T05:41:05.890Z,18.05
2023-04-02T05:43:33.345Z,16.17
2023-04-02T05:46:01.056Z,15.45
2023-04-02T05:48:28.325Z,9.05
2023-04-02T05:50:56.277Z,12.43
2023-04-02T05:53:30.695Z,21.02
2023-04-02T05:55:57.960Z,10.52
2023-04-02T06:01:01.629Z,7.68
2023-04-02T06:03:29.240Z,12.25
2023-04-02T06:05:56.631Z,5.10
2023-04-02T06:08:23.982Z,2.88
2023-04-02T06:10:51.232Z,7.13
2023-04-02T06:13:19.823Z,6.53
2023-04-02T06:15:47.913Z,11.55
2023-04-02T06:18:25.576Z,6.78
2023-04-02T06:20:53.917Z,8.95
2023-04-02T06:23:21.178Z,5.97
2023-04-02T06:25:51.191Z,11.85
2023-04-02T06:28:19.806Z,12.00
2023-04-02T06:30:52.281Z,6.85
2023-04-02T06:33:20.682Z,6.07
2023-04-02T06:35:48.907Z,6.63
2023-04-02T06:38:22.339Z,8.15
2023-04-02T06:40:49.633Z,9.20
2023-04-02T06:43:36.331Z,5.15
2023-04-02T06:46:14.417Z,13.82
2023-04-02T06:49:00.771Z,10.73
2023-04-02T06:51:28.509Z,13.18
2023-04-02T06:53:56.309Z,12.30
2023-04-02T06:56:23.614Z,11.15
2023-04-02T06:58:51.330Z,7.40
2023-04-02T07:01:19.672Z,9.70
2023-04-02T07:03:47.236Z,10.38
2023-04-02T07:06:29.154Z,8.63
2023-04-02T07:08:59.957Z,9.88
2023-04-02T07:11:27.676Z,6.28
2023-04-02T07:13:58.062Z,9.50
2023-04-02T07:16:26.514Z,7.63
2023-04-02T07:18:55.540Z,6.80
2023-04-02T07:21:23.932Z,9.23
2023-04-02T07:23:51.377Z,9.35
2023-04-02T07:26:18.692Z,6.60
2023-04-02T07:28:46.025Z,5.80
2023-04-02T07:31:13.364Z,9.55
2023-04-02T07:33:42.092Z,6.35
2023-04-02T07:36:09.548Z,10.23
2023-04-02T07:38:36.794Z,8.93
2023-04-02T07:41:04.093Z,11.75
2023-04-02T07:43:31.307Z,6.80
2023-04-02T07:45:58.652Z,10.90
2023-04-02T07:48:25.842Z,12.90
2023-04-02T07:50:53.892Z,2.40
2023-04-02T07:53:21.165Z,12.48
2023-04-02T07:55:48.426Z,6.65
2023-04-02T07:58:15.634Z,7.55
2023-04-02T08:00:42.983Z,9.63
2023-04-02T08:03:10.297Z,8.05
2023-04-02T08:05:37.977Z,9.73
2023-04-02T08:08:05.468Z,6.47
2023-04-02T08:10:32.698Z,6.80
2023-04-02T08:12:59.927Z,8.23
2023-04-02T08:15:27.151Z,5.07
2023-04-02T08:17:54.972Z,5.15
2023-04-02T08:20:22.488Z,9.25
2023-04-02T08:22:49.799Z,3.67
2023-04-02T08:25:17.150Z,7.57
2023-04-02T08:27:44.436Z,4.75
2023-04-02T08:30:11.750Z,8.20
2023-04-02T08:32:41.235Z,5.93
2023-04-02T08:35:08.681Z,4.75
2023-04-02T08:37:36.217Z,4.75
2023-04-02T08:40:04.585Z,4.40
2023-04-02T08:42:31.864Z,6.85
2023-04-02T08:45:08.053Z,7.63
2023-04-02T08:47:41.420Z,5.68
2023-04-02T08:50:09.632Z,3.03
2023-04-02T08:52:37.346Z,14.10
2023-04-02T08:55:04.925Z,4.68
2023-04-02T08:57:32.329Z,8.40
2023-04-02T08:59:59.665Z,7.82
2023-04-02T09:02:28.194Z,7.00
2023-04-02T09:04:56.056Z,2.70
2023-04-02T09:07:23.421Z,6.82
2023-04-02T09:09:50.650Z,9.07
2023-04-02T09:12:17.995Z,11.43
2023-04-02T09:14:45.367Z,6.60
2023-04-02T09:17:12.718Z,3.38
2023-04-02T09:19:39.885Z,6.25
2023-04-02T09:22:07.685Z,4.45
2023-04-02T09:24:34.993Z,6.20
2023-04-02T09:27:02.455Z,12.80
2023-04-02T09:29:29.802Z,8.35
2023-04-02T09:31:57.403Z,8.63
2023-04-02T09:34:24.677Z,4.18
2023-04-02T09:36:52.188Z,4.82
2023-04-02T09:39:19.507Z,4.93
2023-04-02T09:41:55.794Z,6.43
2023-04-02T09:44:32.226Z,7.10
2023-04-02T09:47:00.344Z,8.60
2023-04-02T09:49:27.691Z,12.95
2023-04-02T09:51:54.949Z,5.72
2023-04-02T09:54:22.539Z,8.77
2023-04-02T09:56:49.791Z,3.80
2023-04-02T09:59:17.163Z,14.95
2023-04-02T10:01:44.495Z,5.80
2023-04-02T10:04:11.778Z,12.13
2023-04-02T10:06:39.220Z,7.35
2023-04-02T10:09:06.493Z,7.53
2023-04-02T10:11:43.698Z,10.20
2023-04-02T10:14:13.314Z,3.88
2023-04-02T10:16:40.783Z,7.60
2023-04-02T10:19:08.172Z,6.65
2023-04-02T10:21:35.902Z,10.23
2023-04-02T10:24:03.174Z,11.00
2023-04-02T10:26:30.633Z,11.80
2023-04-02T10:28:57.896Z,12.13
2023-04-02T10:31:28.343Z,10.85
2023-04-02T10:33:55.567Z,6.40
2023-04-02T10:36:22.807Z,7.10
2023-04-02T10:38:50.035Z,5.22
2023-04-02T10:41:17.224Z,8.70
2023-04-02T10:43:44.769Z,6.38
2023-04-02T10:46:12.066Z,9.52
2023-04-02T10:48:39.453Z,9.23
2023-04-02T10:51:06.626Z,5.97
2023-04-02T10:53:34.515Z,4.68
2023-04-02T10:56:03.587Z,8.88
2023-04-02T10:58:30.933Z,5.68
2023-04-02T11:00:58.142Z,11.95
2023-04-02T11:03:25.807Z,4.63
2023-04-02T11:05:53.340Z,7.60
2023-04-02T11:08:20.668Z,5.63
2023-04-02T11:10:47.916Z,10.80
2023-04-02T11:13:15.170Z,5.97
2023-04-02T11:15:42.490Z,10.82
2023-04-02T11:18:12.645Z,5.25
2023-04-02T11:20:40.735Z,8.70
2023-04-02T11:23:08.146Z,6.75
2023-04-02T11:25:35.531Z,6.53
2023-04-02T11:28:03.009Z,5.72
2023-04-02T11:30:30.281Z,10.05
2023-04-02T11:32:57.556Z,6.55
2023-04-02T11:35:27.934Z,6.18
2023-04-02T11:37:55.358Z,4.60
2023-04-02T11:40:22.553Z,11.00
2023-04-02T11:42:49.863Z,4.90
2023-04-02T11:45:18.158Z,6.20
2023-04-02T11:47:46.755Z,8.32
2023-04-02T11:50:14.225Z,6.30
2023-04-02T11:52:41.603Z,6.63
2023-04-02T11:55:08.931Z,4.50
2023-04-02T11:57:36.310Z,5.55
2023-04-02T12:00:05.532Z,7.75
2023-04-02T12:02:39.384Z,3.25
2023-04-02T12:05:07.613Z,5.82
2023-04-02T12:07:35.138Z,9.20
2023-04-02T12:10:02.494Z,4.90
2023-04-02T12:12:29.770Z,6.18
2023-04-02T12:14:57.047Z,6.40
2023-04-02T12:17:24.292Z,10.85
2023-04-02T12:19:51.628Z,5.78
2023-04-02T12:22:18.891Z,3.08
2023-04-02T12:24:46.829Z,5.47
2023-04-02T12:27:15.583Z,7.72
2023-04-02T12:29:43.082Z,5.97
2023-04-02T12:32:10.275Z,5.50
2023-04-02T12:34:37.752Z,3.45
2023-04-02T12:37:04.961Z,5.68
2023-04-02T12:39:32.345Z,3.50
2023-04-02T12:41:59.643Z,6.45
2023-04-02T12:44:27.111Z,4.43
2023-04-02T12:46:54.371Z,6.55
2023-04-02T12:49:21.775Z,5.13
2023-04-02T12:51:49.092Z,6.03
2023-04-02T12:54:17.580Z,5.63
2023-04-02T12:56:44.885Z,6.47
2023-04-02T12:59:12.101Z,4.78
2023-04-02T13:01:39.408Z,4.40
2023-04-02T13:04:07.043Z,7.55
2023-04-02T13:06:34.269Z,4.90
2023-04-02T13:09:01.504Z,7.30
2023-04-02T13:11:28.746Z,4.85
2023-04-02T13:13:56.629Z,5.03
2023-04-02T13:16:24.076Z,5.57
2023-04-02T13:18:51.377Z,3.25
2023-04-02T13:21:19.199Z,3.78
2023-04-02T13:23:46.568Z,5.32
2023-04-02T13:26:13.805Z,7.00
2023-04-02T13:28:41.166Z,5.57
2023-04-02T13:31:08.382Z,4.38
2023-04-02T13:33:35.595Z,4.93
2023-04-02T13:36:03.030Z,7.05
2023-04-02T13:38:30.298Z,3.80
2023-04-02T13:40:57.537Z,3.53
2023-04-02T13:43:24.784Z,3.97
2023-04-02T13:45:52.030Z,7.95
2023-04-02T13:48:19.500Z,5.18
2023-04-02T13:50:46.882Z,7.95
2023-04-02T13:53:14.210Z,7.47
2023-04-02T13:55:41.617Z,3.95
2023-04-02T13:58:08.927Z,6.18
2023-04-02T14:00:37.476Z,5.35
2023-04-02T14:03:05.675Z,6.22
2023-04-02T14:05:33.599Z,1.40
2023-04-02T14:08:01.047Z,5.72
2023-04-02T14:10:28.242Z,4.97
2023-04-02T14:12:55.541Z,4.40
2023-04-02T14:15:22.734Z,3.85
2023-04-02T14:17:50.058Z,5.22
2023-04-02T14:20:17.325Z,8.95
2023-04-02T14:22:44.979Z,3.58
2023-04-02T14:25:12.205Z,6.32
2023-04-02T14:27:40.474Z,5.93
2023-04-02T14:30:07.791Z,4.90
2023-04-02T14:32:35.048Z,2.53
2023-04-02T14:35:02.330Z,4.78
2023-04-02T14:37:30.449Z,6.57
2023-04-02T14:39:57.863Z,6.18
2023-04-02T14:42:25.134Z,7.07
2023-04-02T14:44:53.124Z,5.65
2023-04-02T14:47:20.417Z,7.20
2023-04-02T14:49:49.620Z,3.88
2023-04-02T14:52:16.933Z,5.63
2023-04-02T14:54:45.217Z,4.10
2023-04-02T14:57:12.533Z,7.18
2023-04-02T14:59:39.772Z,6.10
2023-04-02T15:02:07.321Z,2.60
2023-04-02T15:04:34.531Z,9.35
2023-04-02T15:07:01.749Z,8.80
2023-04-02T15:09:29.040Z,9.63
2023-04-02T15:11:56.369Z,7.40
2023-04-02T15:14:23.605Z,6.00
2023-04-02T15:16:51.223Z,8.60
2023-04-02T15:19:18.656Z,4.32
2023-04-02T15:21:57.716Z,4.95
2023-04-02T15:24:27.753Z,6.93
2023-04-02T15:26:55.173Z,6.50
2023-04-02T15:29:28.690Z,5.30
2023-04-02T15:31:57.884Z,13.68
2023-04-02T15:34:25.146Z,8.52
2023-04-02T15:36:52.596Z,8.23
2023-04-02T15:39:19.821Z,4.75
2023-04-02T15:41:47.974Z,12.32
2023-04-02T15:44:15.554Z,5.13
2023-04-02T15:46:42.764Z,3.53
2023-04-02T15:49:10.141Z,11.27
2023-04-02T15:51:37.426Z,10.02
2023-04-02T15:54:04.753Z,6.28
2023-04-02T15:56:32.239Z,6.55
2023-04-02T15:58:59.444Z,5.15
2023-04-02T16:01:26.831Z,5.85
2023-04-02T16:03:54.120Z,10.10
2023-04-02T16:06:21.683Z,7.60
2023-04-02T16:08:50.563Z,6.72
2023-04-02T16:11:17.942Z,10.95
2023-04-02T16:13:45.671Z,5.82
2023-04-02T16:16:13.021Z,5.10
2023-04-02T16:18:40.555Z,10.82
2023-04-02T16:21:07.831Z,4.35
2023-04-02T16:23:35.311Z,8.68
2023-04-02T16:26:02.619Z,9.02
2023-04-02T16:28:29.807Z,7.05
2023-04-02T16:30:57.154Z,9.20
2023-04-02T16:33:24.454Z,11.15
2023-04-02T16:35:51.732Z,10.73
2023-04-02T16:38:18.991Z,11.95
2023-04-02T16:40:57.153Z,5.57
2023-04-02T16:43:28.375Z,11.63
2023-04-02T16:45:55.887Z,12.18
2023-04-02T16:48:24.181Z,13.32
2023-04-02T16:50:51.501Z,7.60
2023-04-02T16:53:18.736Z,11.75
2023-04-02T16:55:46.157Z,11.60
2023-04-02T16:58:14.160Z,5.63
2023-04-02T17:00:41.456Z,6.68
2023-04-02T17:03:08.816Z,7.13
2023-04-02T17:05:36.982Z,7.22
2023-04-02T17:08:04.216Z,10.50
2023-04-02T17:10:31.467Z,7.97
2023-04-02T17:12:58.671Z,8.10
2023-04-02T17:15:28.317Z,9.40
2023-04-02T17:17:55.944Z,8.90
2023-04-02T17:20:23.233Z,9.80
2023-04-02T17:22:50.427Z,9.45
2023-04-02T17:25:17.724Z,5.85
2023-04-02T17:27:44.934Z,15.52
2023-04-02T17:30:12.216Z,8.20
2023-04-02T17:32:39.435Z,8.20
2023-04-02T17:35:06.880Z,15.90
2023-04-02T17:37:34.094Z,16.25
2023-04-02T17:40:01.333Z,14.30
2023-04-02T17:42:28.630Z,10.65
2023-04-02T17:44:56.215Z,18.20
2023-04-02T17:47:23.625Z,11.65
2023-04-02T17:49:51.111Z,16.00
2023-04-02T17:52:18.427Z,15.93
2023-04-02T17:54:45.796Z,37.15
2023-04-02T17:57:13.253Z,15.85
2023-04-02T17:59:40.524Z,13.25
2023-04-02T18:02:07.799Z,17.23
2023-04-02T18:04:35.094Z,15.90
2023-04-02T18:07:02.403Z,36.38
2023-04-02T18:09:29.815Z,21.23
2023-04-02T18:11:57.661Z,14.68
2023-04-02T18:14:26.001Z,8.73
2023-04-02T18:16:53.335Z,15.52
2023-04-02T18:19:20.568Z,23.50
2023-04-02T18:21:47.914Z,25.88
2023-04-02T18:24:15.125Z,6.90
2023-04-02T18:26:42.505Z,14.50
2023-04-02T18:29:09.899Z,38.40
2023-04-02T18:31:37.388Z,31.73
2023-04-02T18:34:04.611Z,39.00
2023-04-02T18:36:32.022Z,33.25
2023-04-02T18:38:59.517Z,43.05
2023-04-02T18:41:27.093Z,34.63
2023-04-02T18:43:55.848Z,11.02
2023-04-02T18:46:24.705Z,32.08
2023-04-02T18:48:52.073Z,18.75
2023-04-02T18:51:19.831Z,16.38
2023-04-02T18:53:47.088Z,14.43
2023-04-02T18:56:14.566Z,20.23
2023-04-02T18:58:41.835Z,34.95
2023-04-02T19:01:09.117Z,25.08
2023-04-02T19:03:36.549Z,35.30
2023-04-02T19:06:04.054Z,24.45
2023-04-02T19:08:31.515Z,26.88
2023-04-02T19:10:58.994Z,26.48
2023-04-02T19:13:26.476Z,33.05
2023-04-02T19:15:53.868Z,28.15
2023-04-02T19:18:21.102Z,23.38
2023-04-02T19:20:50.382Z,23.20
2023-04-02T19:23:17.579Z,33.85
2023-04-02T19:25:44.879Z,17.90
2023-04-02T19:28:12.425Z,17.42
2023-04-02T19:30:40.247Z,22.00
2023-04-02T19:33:07.702Z,33.33
2023-04-02T19:35:35.352Z,23.80
2023-04-02T19:38:02.990Z,11.32
2023-04-02T19:40:30.484Z,30.42
2023-04-02T19:42:58.294Z,29.65
2023-04-02T19:45:25.680Z,21.85
2023-04-02T19:47:52.881Z,21.20
2023-04-02T19:50:20.409Z,17.73
2023-04-02T19:52:47.637Z,21.73
2023-04-02T19:55:14.951Z,45.78
2023-04-02T19:57:42.198Z,22.13
2023-04-02T20:00:09.591Z,21.58
2023-04-02T20:02:39.338Z,16.55
2023-04-02T20:05:06.803Z,40.65
2023-04-02T20:07:33.983Z,31.55
2023-04-02T20:10:01.476Z,29.15
2023-04-02T20:12:28.818Z,24.25
2023-04-02T20:14:56.164Z,27.60
2023-04-02T20:17:23.468Z,39.65
2023-04-02T20:19:50.784Z,14.52
2023-04-02T20:22:19.059Z,23.67
2023-04-02T20:24:46.373Z,30.48
2023-04-02T20:27:13.570Z,25.45
2023-04-02T20:29:42.396Z,28.42
2023-04-02T20:32:09.794Z,20.33
2023-04-02T20:34:37.160Z,14.30
2023-04-02T20:37:04.386Z,12.68
2023-04-02T20:39:31.666Z,34.28
2023-04-02T20:42:02.599Z,10.70
2023-04-02T20:44:30.012Z,17.23
2023-04-02T20:46:57.560Z,26.33
2023-04-02T20:49:24.872Z,21.00
2023-04-02T20:51:52.791Z,16.30
2023-04-02T20:54:20.061Z,18.85
2023-04-02T20:56:47.454Z,16.30
2023-04-02T20:59:14.760Z,26.35
2023-04-02T21:01:42.041Z,21.58
2023-04-02T21:04:09.321Z,14.35
2023-04-02T21:06:36.551Z,17.35
2023-04-02T21:09:05.277Z,35.30
2023-04-02T21:11:33.610Z,11.02
2023-04-02T21:14:01.023Z,9.10
